sensor_id;sensor_type;location;lat;lon;timestamp;P1;durP1;ratioP1;P2;durP2;ratioP2
5898;SDS011;2975;50.956;6.962;2023-06-10T00:01:28;8.57;;;6.17;;
5898;SDS011;2975;50.956;6.962;2023-06-10T00:03:55;8.27;;;6.90;;
5898;SDS011;2975;50.956;6.962;2023-06-10T00:06:20;10.87;;;7.60;;
5898;SDS011;2975;50.956;6.962;2023-06-10T00:08:49;6.83;;;6.13;;
5898;SDS011;2975;50.956;6.962;2023-06-10T00:11:15;8.93;;;6.10;;
5898;SDS011;2975;50.956;6.962;2023-06-10T00:13:41;9.03;;;5.90;;
5898;SDS011;2975;50.956;6.962;2023-06-10T00:16:06;8.43;;;6.43;;
5898;SDS011;2975;50.956;6.962;2023-06-10T00:18:32;7.30;;;6.53;;
5898;SDS011;2975;50.956;6.962;2023-06-10T00:20:57;7.77;;;5.67;;
5898;SDS011;2975;50.956;6.962;2023-06-10T00:23:29;10.67;;;6.40;;
5898;SDS011;2975;50.956;6.962;2023-06-10T00:25:56;9.90;;;6.43;;
5898;SDS011;2975;50.956;6.962;2023-06-10T00:28:25;7.17;;;6.47;;
5898;SDS011;2975;50.956;6.962;2023-06-10T00:30:51;7.67;;;6.73;;
5898;SDS011;2975;50.956;6.962;2023-06-10T00:33:16;6.77;;;5.90;;
5898;SDS011;2975;50.956;6.962;2023-06-10T00:35:42;7.30;;;6.23;;
5898;SDS011;2975;50.956;6.962;2023-06-10T00:38:08;7.50;;;6.20;;
5898;SDS011;2975;50.956;6.962;2023-06-10T00:40:38;7.83;;;5.80;;
5898;SDS011;2975;50.956;6.962;2023-06-10T00:43:04;6.73;;;5.63;;
5898;SDS011;2975;50.956;6.962;2023-06-10T00:45:30;8.20;;;6.33;;
5898;SDS011;2975;50.956;6.962;2023-06-10T00:47:56;8.47;;;5.73;;
5898;SDS011;2975;50.956;6.962;2023-06-10T00:50:21;9.07;;;6.13;;
5898;SDS011;2975;50.956;6.962;2023-06-10T00:52:47;7.70;;;5.43;;
5898;SDS011;2975;50.956;6.962;2023-06-10T00:55:13;7.10;;;5.80;;
5898;SDS011;2975;50.956;6.962;2023-06-10T00:57:41;6.37;;;5.77;;
5898;SDS011;2975;50.956;6.962;2023-06-10T01:00:09;7.03;;;6.00;;
5898;SDS011;2975;50.956;6.962;2023-06-10T01:02:36;7.83;;;6.30;;
5898;SDS011;2975;50.956;6.962;2023-06-10T01:05:01;7.90;;;6.20;;
5898;SDS011;2975;50.956;6.962;2023-06-10T01:07:33;6.63;;;5.87;;
5898;SDS011;2975;50.956;6.962;2023-06-10T01:10:36;6.60;;;6.00;;
5898;SDS011;2975;50.956;6.962;2023-06-10T01:13:06;8.87;;;6.37;;
5898;SDS011;2975;50.956;6.962;2023-06-10T01:15:36;6.90;;;5.57;;
5898;SDS011;2975;50.956;6.962;2023-06-10T01:18:03;7.60;;;5.30;;
5898;SDS011;2975;50.956;6.962;2023-06-10T01:20:33;7.67;;;6.10;;
5898;SDS011;2975;50.956;6.962;2023-06-10T01:23:01;7.03;;;6.03;;
5898;SDS011;2975;50.956;6.962;2023-06-10T01:25:30;8.07;;;5.67;;
5898;SDS011;2975;50.956;6.962;2023-06-10T01:33:10;6.73;;;6.03;;
5898;SDS011;2975;50.956;6.962;2023-06-10T01:35:38;7.43;;;6.27;;
5898;SDS011;2975;50.956;6.962;2023-06-10T01:38:05;7.27;;;6.10;;
5898;SDS011;2975;50.956;6.962;2023-06-10T01:40:32;8.07;;;6.43;;
5898;SDS011;2975;50.956;6.962;2023-06-10T01:42:58;7.80;;;6.10;;
5898;SDS011;2975;50.956;6.962;2023-06-10T01:45:24;6.23;;;5.53;;
5898;SDS011;2975;50.956;6.962;2023-06-10T01:47:50;11.00;;;6.37;;
5898;SDS011;2975;50.956;6.962;2023-06-10T01:50:15;9.03;;;6.93;;
5898;SDS011;2975;50.956;6.962;2023-06-10T01:52:41;8.67;;;6.70;;
5898;SDS011;2975;50.956;6.962;2023-06-10T01:55:07;9.33;;;6.77;;
5898;SDS011;2975;50.956;6.962;2023-06-10T01:57:33;7.63;;;6.73;;
5898;SDS011;2975;50.956;6.962;2023-06-10T01:59:58;7.50;;;6.17;;
5898;SDS011;2975;50.956;6.962;2023-06-10T02:02:24;7.23;;;6.50;;
5898;SDS011;2975;50.956;6.962;2023-06-10T02:04:50;7.63;;;6.83;;
5898;SDS011;2975;50.956;6.962;2023-06-10T02:07:15;11.40;;;7.50;;
5898;SDS011;2975;50.956;6.962;2023-06-10T02:09:41;9.10;;;6.93;;
5898;SDS011;2975;50.956;6.962;2023-06-10T02:12:06;8.70;;;6.53;;
5898;SDS011;2975;50.956;6.962;2023-06-10T02:14:33;13.23;;;7.57;;
5898;SDS011;2975;50.956;6.962;2023-06-10T02:16:58;8.23;;;6.83;;
5898;SDS011;2975;50.956;6.962;2023-06-10T02:19:24;9.63;;;7.23;;
5898;SDS011;2975;50.956;6.962;2023-06-10T02:21:51;7.63;;;6.83;;
5898;SDS011;2975;50.956;6.962;2023-06-10T02:24:17;7.17;;;6.47;;
5898;SDS011;2975;50.956;6.962;2023-06-10T02:26:43;9.70;;;7.80;;
5898;SDS011;2975;50.956;6.962;2023-06-10T02:29:09;10.37;;;7.40;;
5898;SDS011;2975;50.956;6.962;2023-06-10T02:31:34;11.23;;;7.97;;
5898;SDS011;2975;50.956;6.962;2023-06-10T02:34:00;9.17;;;7.77;;
5898;SDS011;2975;50.956;6.962;2023-06-10T02:36:26;11.83;;;7.50;;
5898;SDS011;2975;50.956;6.962;2023-06-10T02:38:52;9.53;;;7.20;;
5898;SDS011;2975;50.956;6.962;2023-06-10T02:41:18;9.93;;;7.40;;
5898;SDS011;2975;50.956;6.962;2023-06-10T02:43:44;11.20;;;7.87;;
5898;SDS011;2975;50.956;6.962;2023-06-10T02:46:10;9.93;;;6.97;;
5898;SDS011;2975;50.956;6.962;2023-06-10T02:48:42;8.40;;;7.50;;
5898;SDS011;2975;50.956;6.962;2023-06-10T02:51:11;7.60;;;6.80;;
5898;SDS011;2975;50.956;6.962;2023-06-10T02:53:36;8.67;;;7.27;;
5898;SDS011;2975;50.956;6.962;2023-06-10T02:56:02;8.27;;;7.37;;
5898;SDS011;2975;50.956;6.962;2023-06-10T02:58:28;7.97;;;7.10;;
5898;SDS011;2975;50.956;6.962;2023-06-10T03:00:53;7.83;;;7.03;;
5898;SDS011;2975;50.956;6.962;2023-06-10T03:03:20;7.83;;;6.90;;
5898;SDS011;2975;50.956;6.962;2023-06-10T03:05:47;10.33;;;7.80;;
5898;SDS011;2975;50.956;6.962;2023-06-10T03:08:13;8.20;;;7.27;;
5898;SDS011;2975;50.956;6.962;2023-06-10T03:10:39;8.63;;;7.77;;
5898;SDS011;2975;50.956;6.962;2023-06-10T03:13:05;11.50;;;7.13;;
5898;SDS011;2975;50.956;6.962;2023-06-10T03:15:31;9.10;;;8.20;;
5898;SDS011;2975;50.956;6.962;2023-06-10T03:17:59;11.40;;;8.20;;
5898;SDS011;2975;50.956;6.962;2023-06-10T03:20:25;13.07;;;8.57;;
5898;SDS011;2975;50.956;6.962;2023-06-10T03:22:52;8.53;;;7.63;;
5898;SDS011;2975;50.956;6.962;2023-06-10T03:25:18;9.80;;;7.47;;
5898;SDS011;2975;50.956;6.962;2023-06-10T03:27:45;9.60;;;7.60;;
5898;SDS011;2975;50.956;6.962;2023-06-10T03:30:12;8.67;;;7.50;;
5898;SDS011;2975;50.956;6.962;2023-06-10T03:32:38;9.30;;;8.00;;
5898;SDS011;2975;50.956;6.962;2023-06-10T03:35:04;9.17;;;7.80;;
5898;SDS011;2975;50.956;6.962;2023-06-10T03:37:30;9.47;;;8.47;;
5898;SDS011;2975;50.956;6.962;2023-06-10T03:39:55;13.10;;;8.37;;
5898;SDS011;2975;50.956;6.962;2023-06-10T03:42:21;10.93;;;8.20;;
5898;SDS011;2975;50.956;6.962;2023-06-10T03:44:47;10.90;;;7.87;;
5898;SDS011;2975;50.956;6.962;2023-06-10T03:47:12;10.40;;;8.30;;
5898;SDS011;2975;50.956;6.962;2023-06-10T03:49:38;10.97;;;8.33;;
5898;SDS011;2975;50.956;6.962;2023-06-10T03:52:05;13.13;;;8.90;;
5898;SDS011;2975;50.956;6.962;2023-06-10T03:54:31;10.73;;;8.80;;
5898;SDS011;2975;50.956;6.962;2023-06-10T03:56:59;11.37;;;8.57;;
5898;SDS011;2975;50.956;6.962;2023-06-10T03:59:25;13.03;;;9.37;;
5898;SDS011;2975;50.956;6.962;2023-06-10T04:01:50;11.40;;;8.93;;
5898;SDS011;2975;50.956;6.962;2023-06-10T04:04:16;11.17;;;8.10;;
5898;SDS011;2975;50.956;6.962;2023-06-10T04:06:42;9.60;;;8.23;;
5898;SDS011;2975;50.956;6.962;2023-06-10T04:09:08;9.60;;;8.23;;
5898;SDS011;2975;50.956;6.962;2023-06-10T04:11:35;10.17;;;8.00;;
5898;SDS011;2975;50.956;6.962;2023-06-10T04:14:01;9.97;;;8.93;;
5898;SDS011;2975;50.956;6.962;2023-06-10T04:16:27;10.90;;;9.03;;
5898;SDS011;2975;50.956;6.962;2023-06-10T04:18:52;11.40;;;8.57;;
5898;SDS011;2975;50.956;6.962;2023-06-10T04:21:18;13.37;;;9.13;;
5898;SDS011;2975;50.956;6.962;2023-06-10T04:23:44;11.53;;;9.40;;
5898;SDS011;2975;50.956;6.962;2023-06-10T04:26:09;12.13;;;8.37;;
5898;SDS011;2975;50.956;6.962;2023-06-10T04:28:37;10.20;;;7.90;;
5898;SDS011;2975;50.956;6.962;2023-06-10T04:31:03;11.07;;;8.50;;
5898;SDS011;2975;50.956;6.962;2023-06-10T04:33:29;12.30;;;8.50;;
5898;SDS011;2975;50.956;6.962;2023-06-10T04:35:55;9.90;;;8.93;;
5898;SDS011;2975;50.956;6.962;2023-06-10T04:38:21;10.17;;;8.50;;
5898;SDS011;2975;50.956;6.962;2023-06-10T04:40:46;11.20;;;8.50;;
5898;SDS011;2975;50.956;6.962;2023-06-10T04:43:12;9.83;;;8.33;;
5898;SDS011;2975;50.956;6.962;2023-06-10T04:45:38;8.70;;;7.77;;
5898;SDS011;2975;50.956;6.962;2023-06-10T04:48:04;10.63;;;7.60;;
5898;SDS011;2975;50.956;6.962;2023-06-10T04:50:30;10.20;;;7.90;;
5898;SDS011;2975;50.956;6.962;2023-06-10T04:52:58;8.77;;;7.47;;
5898;SDS011;2975;50.956;6.962;2023-06-10T04:55:23;11.15;;;7.43;;
5898;SDS011;2975;50.956;6.962;2023-06-10T04:57:49;8.73;;;7.05;;
5898;SDS011;2975;50.956;6.962;2023-06-10T05:00:15;7.85;;;6.90;;
5898;SDS011;2975;50.956;6.962;2023-06-10T05:02:41;7.72;;;6.93;;
5898;SDS011;2975;50.956;6.962;2023-06-10T05:05:07;8.80;;;6.50;;
5898;SDS011;2975;50.956;6.962;2023-06-10T05:07:33;8.65;;;6.47;;
5898;SDS011;2975;50.956;6.962;2023-06-10T05:09:58;7.70;;;6.10;;
5898;SDS011;2975;50.956;6.962;2023-06-10T05:12:24;8.63;;;6.68;;
5898;SDS011;2975;50.956;6.962;2023-06-10T05:14:49;7.45;;;6.65;;
5898;SDS011;2975;50.956;6.962;2023-06-10T05:17:15;7.70;;;6.63;;
5898;SDS011;2975;50.956;6.962;2023-06-10T05:19:40;7.55;;;6.80;;
5898;SDS011;2975;50.956;6.962;2023-06-10T05:22:08;9.18;;;6.13;;
5898;SDS011;2975;50.956;6.962;2023-06-10T05:24:34;9.18;;;6.07;;
5898;SDS011;2975;50.956;6.962;2023-06-10T05:26:59;7.63;;;6.72;;
5898;SDS011;2975;50.956;6.962;2023-06-10T05:29:25;7.03;;;5.47;;
5898;SDS011;2975;50.956;6.962;2023-06-10T05:31:51;5.78;;;5.18;;
5898;SDS011;2975;50.956;6.962;2023-06-10T05:34:16;7.00;;;5.53;;
5898;SDS011;2975;50.956;6.962;2023-06-10T05:36:42;6.25;;;5.65;;
5898;SDS011;2975;50.956;6.962;2023-06-10T05:39:08;6.13;;;5.53;;
5898;SDS011;2975;50.956;6.962;2023-06-10T05:41:35;8.52;;;5.38;;
5898;SDS011;2975;50.956;6.962;2023-06-10T05:44:01;6.60;;;5.38;;
5898;SDS011;2975;50.956;6.962;2023-06-10T05:46:26;6.60;;;4.60;;
5898;SDS011;2975;50.956;6.962;2023-06-10T05:48:52;5.75;;;4.75;;
5898;SDS011;2975;50.956;6.962;2023-06-10T05:51:18;4.43;;;4.03;;
5898;SDS011;2975;50.956;6.962;2023-06-10T05:53:43;6.72;;;5.25;;
5898;SDS011;2975;50.956;6.962;2023-06-10T05:56:11;8.48;;;5.05;;
5898;SDS011;2975;50.956;6.962;2023-06-10T05:58:37;5.82;;;4.60;;
5898;SDS011;2975;50.956;6.962;2023-06-10T06:01:03;5.05;;;4.55;;
5898;SDS011;2975;50.956;6.962;2023-06-10T06:03:28;5.43;;;4.88;;
5898;SDS011;2975;50.956;6.962;2023-06-10T06:05:54;5.20;;;4.72;;
5898;SDS011;2975;50.956;6.962;2023-06-10T06:08:20;4.63;;;4.15;;
5898;SDS011;2975;50.956;6.962;2023-06-10T06:10:45;6.07;;;4.47;;
5898;SDS011;2975;50.956;6.962;2023-06-10T06:13:12;6.55;;;4.43;;
5898;SDS011;2975;50.956;6.962;2023-06-10T06:15:38;5.30;;;3.78;;
5898;SDS011;2975;50.956;6.962;2023-06-10T06:18:03;7.63;;;4.60;;
5898;SDS011;2975;50.956;6.962;2023-06-10T06:20:29;8.73;;;4.53;;
5898;SDS011;2975;50.956;6.962;2023-06-10T06:22:55;4.43;;;4.03;;
5898;SDS011;2975;50.956;6.962;2023-06-10T06:25:20;5.30;;;4.43;;
5898;SDS011;2975;50.956;6.962;2023-06-10T06:27:46;4.93;;;4.35;;
5898;SDS011;2975;50.956;6.962;2023-06-10T06:30:11;9.90;;;4.60;;
5898;SDS011;2975;50.956;6.962;2023-06-10T06:32:37;6.03;;;4.35;;
5898;SDS011;2975;50.956;6.962;2023-06-10T06:35:03;5.43;;;4.50;;
5898;SDS011;2975;50.956;6.962;2023-06-10T06:37:30;9.23;;;4.50;;
5898;SDS011;2975;50.956;6.962;2023-06-10T06:39:57;13.27;;;4.93;;
5898;SDS011;2975;50.956;6.962;2023-06-10T06:42:23;7.15;;;4.80;;
5898;SDS011;2975;50.956;6.962;2023-06-10T06:44:49;6.05;;;4.38;;
5898;SDS011;2975;50.956;6.962;2023-06-10T06:47:14;7.90;;;4.72;;
5898;SDS011;2975;50.956;6.962;2023-06-10T06:49:42;5.00;;;4.50;;
5898;SDS011;2975;50.956;6.962;2023-06-10T06:52:08;4.97;;;4.47;;
5898;SDS011;2975;50.956;6.962;2023-06-10T06:54:34;5.50;;;4.30;;
5898;SDS011;2975;50.956;6.962;2023-06-10T06:56:59;6.38;;;4.30;;
5898;SDS011;2975;50.956;6.962;2023-06-10T06:59:25;8.23;;;4.80;;
5898;SDS011;2975;50.956;6.962;2023-06-10T07:01:51;7.53;;;4.22;;
5898;SDS011;2975;50.956;6.962;2023-06-10T07:04:19;7.13;;;5.43;;
5898;SDS011;2975;50.956;6.962;2023-06-10T07:06:46;7.32;;;5.15;;
5898;SDS011;2975;50.956;6.962;2023-06-10T07:09:12;6.35;;;4.70;;
5898;SDS011;2975;50.956;6.962;2023-06-10T07:11:38;6.05;;;4.43;;
5898;SDS011;2975;50.956;6.962;2023-06-10T07:14:04;9.20;;;5.95;;
5898;SDS011;2975;50.956;6.962;2023-06-10T07:16:29;7.22;;;4.53;;
5898;SDS011;2975;50.956;6.962;2023-06-10T07:18:55;8.68;;;4.90;;
5898;SDS011;2975;50.956;6.962;2023-06-10T07:21:21;6.20;;;4.22;;
5898;SDS011;2975;50.956;6.962;2023-06-10T07:23:48;8.38;;;5.10;;
5898;SDS011;2975;50.956;6.962;2023-06-10T07:26:14;5.28;;;4.75;;
5898;SDS011;2975;50.956;6.962;2023-06-10T07:28:40;4.95;;;4.25;;
5898;SDS011;2975;50.956;6.962;2023-06-10T07:31:06;7.38;;;5.07;;
5898;SDS011;2975;50.956;6.962;2023-06-10T07:33:33;7.88;;;5.20;;
5898;SDS011;2975;50.956;6.962;2023-06-10T07:35:59;4.85;;;4.35;;
5898;SDS011;2975;50.956;6.962;2023-06-10T07:38:25;8.95;;;4.30;;
5898;SDS011;2975;50.956;6.962;2023-06-10T07:40:51;5.78;;;4.30;;
5898;SDS011;2975;50.956;6.962;2023-06-10T07:43:17;5.82;;;4.15;;
5898;SDS011;2975;50.956;6.962;2023-06-10T07:45:43;6.53;;;4.45;;
5898;SDS011;2975;50.956;6.962;2023-06-10T07:48:08;4.97;;;4.28;;
5898;SDS011;2975;50.956;6.962;2023-06-10T07:50:34;7.97;;;5.07;;
5898;SDS011;2975;50.956;6.962;2023-06-10T07:53:00;5.90;;;4.55;;
5898;SDS011;2975;50.956;6.962;2023-06-10T07:55:26;5.88;;;4.50;;
5898;SDS011;2975;50.956;6.962;2023-06-10T07:57:54;5.45;;;4.40;;
5898;SDS011;2975;50.956;6.962;2023-06-10T08:00:20;5.75;;;4.50;;
5898;SDS011;2975;50.956;6.962;2023-06-10T08:02:46;6.10;;;4.85;;
5898;SDS011;2975;50.956;6.962;2023-06-10T08:05:12;6.50;;;4.53;;
5898;SDS011;2975;50.956;6.962;2023-06-10T08:07:38;6.32;;;5.25;;
5898;SDS011;2975;50.956;6.962;2023-06-10T08:10:05;5.25;;;4.10;;
5898;SDS011;2975;50.956;6.962;2023-06-10T08:12:31;5.93;;;4.70;;
5898;SDS011;2975;50.956;6.962;2023-06-10T08:14:57;8.80;;;4.60;;
5898;SDS011;2975;50.956;6.962;2023-06-10T08:17:23;5.72;;;5.20;;
5898;SDS011;2975;50.956;6.962;2023-06-10T08:19:49;8.20;;;4.82;;
5898;SDS011;2975;50.956;6.962;2023-06-10T08:22:14;8.88;;;5.00;;
5898;SDS011;2975;50.956;6.962;2023-06-10T08:24:40;7.22;;;5.10;;
5898;SDS011;2975;50.956;6.962;2023-06-10T08:27:06;7.53;;;4.90;;
5898;SDS011;2975;50.956;6.962;2023-06-10T08:29:31;6.65;;;5.10;;
5898;SDS011;2975;50.956;6.962;2023-06-10T08:31:57;5.65;;;4.60;;
5898;SDS011;2975;50.956;6.962;2023-06-10T08:34:23;8.40;;;5.38;;
5898;SDS011;2975;50.956;6.962;2023-06-10T08:36:49;5.53;;;4.80;;
5898;SDS011;2975;50.956;6.962;2023-06-10T08:39:20;7.22;;;4.95;;
5898;SDS011;2975;50.956;6.962;2023-06-10T08:41:49;5.05;;;4.55;;
5898;SDS011;2975;50.956;6.962;2023-06-10T08:44:28;5.53;;;4.70;;
5898;SDS011;2975;50.956;6.962;2023-06-10T08:46:55;7.75;;;4.82;;
5898;SDS011;2975;50.956;6.962;2023-06-10T08:49:24;5.60;;;5.00;;
5898;SDS011;2975;50.956;6.962;2023-06-10T08:51:53;9.45;;;5.05;;
5898;SDS011;2975;50.956;6.962;2023-06-10T08:54:24;7.65;;;5.43;;
5898;SDS011;2975;50.956;6.962;2023-06-10T08:56:51;8.18;;;5.20;;
5898;SDS011;2975;50.956;6.962;2023-06-10T08:59:20;7.57;;;5.43;;
5898;SDS011;2975;50.956;6.962;2023-06-10T09:01:46;5.65;;;5.03;;
5898;SDS011;2975;50.956;6.962;2023-06-10T09:04:12;6.97;;;5.03;;
5898;SDS011;2975;50.956;6.962;2023-06-10T09:06:38;6.97;;;5.25;;
5898;SDS011;2975;50.956;6.962;2023-06-10T09:09:05;6.75;;;4.93;;
5898;SDS011;2975;50.956;6.962;2023-06-10T09:11:32;7.30;;;5.63;;
5898;SDS011;2975;50.956;6.962;2023-06-10T09:13:58;6.10;;;4.72;;
5898;SDS011;2975;50.956;6.962;2023-06-10T09:16:26;6.47;;;4.70;;
5898;SDS011;2975;50.956;6.962;2023-06-10T09:18:52;7.82;;;4.95;;
5898;SDS011;2975;50.956;6.962;2023-06-10T09:21:23;6.15;;;5.55;;
5898;SDS011;2975;50.956;6.962;2023-06-10T09:23:50;5.40;;;4.90;;
5898;SDS011;2975;50.956;6.962;2023-06-10T09:26:16;5.15;;;4.70;;
5898;SDS011;2975;50.956;6.962;2023-06-10T09:28:47;5.40;;;4.78;;
5898;SDS011;2975;50.956;6.962;2023-06-10T09:31:16;5.75;;;5.15;;
5898;SDS011;2975;50.956;6.962;2023-06-10T09:33:46;6.85;;;5.50;;
5898;SDS011;2975;50.956;6.962;2023-06-10T09:36:21;6.72;;;4.50;;
5898;SDS011;2975;50.956;6.962;2023-06-10T09:38:49;5.55;;;4.78;;
5898;SDS011;2975;50.956;6.962;2023-06-10T09:41:16;6.95;;;4.43;;
5898;SDS011;2975;50.956;6.962;2023-06-10T09:43:43;5.25;;;4.72;;
5898;SDS011;2975;50.956;6.962;2023-06-10T09:46:16;6.38;;;5.35;;
5898;SDS011;2975;50.956;6.962;2023-06-10T09:48:43;8.52;;;4.63;;
5898;SDS011;2975;50.956;6.962;2023-06-10T09:51:10;6.40;;;5.30;;
5898;SDS011;2975;50.956;6.962;2023-06-10T09:53:37;5.90;;;5.05;;
5898;SDS011;2975;50.956;6.962;2023-06-10T09:56:02;7.13;;;5.00;;
5898;SDS011;2975;50.956;6.962;2023-06-10T09:58:35;7.63;;;4.60;;
5898;SDS011;2975;50.956;6.962;2023-06-10T10:01:05;7.55;;;4.93;;
5898;SDS011;2975;50.956;6.962;2023-06-10T10:03:31;9.65;;;5.40;;
5898;SDS011;2975;50.956;6.962;2023-06-10T10:05:57;8.63;;;5.32;;
5898;SDS011;2975;50.956;6.962;2023-06-10T10:08:25;8.90;;;5.22;;
5898;SDS011;2975;50.956;6.962;2023-06-10T10:10:51;6.40;;;5.10;;
5898;SDS011;2975;50.956;6.962;2023-06-10T10:13:16;8.02;;;4.93;;
5898;SDS011;2975;50.956;6.962;2023-06-10T10:15:43;5.68;;;5.05;;
5898;SDS011;2975;50.956;6.962;2023-06-10T10:18:10;5.65;;;5.05;;
5898;SDS011;2975;50.956;6.962;2023-06-10T10:20:45;7.95;;;5.18;;
5898;SDS011;2975;50.956;6.962;2023-06-10T10:23:16;6.43;;;4.82;;
5898;SDS011;2975;50.956;6.962;2023-06-10T10:25:50;6.05;;;4.70;;
5898;SDS011;2975;50.956;6.962;2023-06-10T10:28:18;5.28;;;4.63;;
5898;SDS011;2975;50.956;6.962;2023-06-10T10:30:47;7.70;;;4.97;;
5898;SDS011;2975;50.956;6.962;2023-06-10T10:33:29;7.22;;;5.40;;
5898;SDS011;2975;50.956;6.962;2023-06-10T10:36:01;5.68;;;4.47;;
5898;SDS011;2975;50.956;6.962;2023-06-10T10:38:27;6.22;;;4.78;;
5898;SDS011;2975;50.956;6.962;2023-06-10T10:40:53;5.90;;;4.60;;
5898;SDS011;2975;50.956;6.962;2023-06-10T10:43:21;5.55;;;4.40;;
5898;SDS011;2975;50.956;6.962;2023-06-10T10:45:57;5.30;;;4.80;;
5898;SDS011;2975;50.956;6.962;2023-06-10T10:48:26;10.65;;;4.95;;
5898;SDS011;2975;50.956;6.962;2023-06-10T10:50:58;5.93;;;4.93;;
5898;SDS011;2975;50.956;6.962;2023-06-10T10:53:24;7.38;;;4.60;;
5898;SDS011;2975;50.956;6.962;2023-06-10T10:58:32;6.10;;;4.70;;
5898;SDS011;2975;50.956;6.962;2023-06-10T11:04:21;6.28;;;4.43;;
5898;SDS011;2975;50.956;6.962;2023-06-10T11:06:53;7.57;;;4.50;;
5898;SDS011;2975;50.956;6.962;2023-06-10T11:09:25;6.95;;;4.50;;
5898;SDS011;2975;50.956;6.962;2023-06-10T11:11:58;9.75;;;4.60;;
5898;SDS011;2975;50.956;6.962;2023-06-10T11:14:28;5.40;;;4.07;;
5898;SDS011;2975;50.956;6.962;2023-06-10T11:16:58;5.63;;;4.25;;
5898;SDS011;2975;50.956;6.962;2023-06-10T11:22:05;6.03;;;3.72;;
5898;SDS011;2975;50.956;6.962;2023-06-10T11:24:32;4.55;;;4.03;;
5898;SDS011;2975;50.956;6.962;2023-06-10T11:30:33;4.95;;;4.10;;
5898;SDS011;2975;50.956;6.962;2023-06-10T11:32:48;6.78;;;4.35;;
5898;SDS011;2975;50.956;6.962;2023-06-10T11:35:16;7.03;;;4.35;;
5898;SDS011;2975;50.956;6.962;2023-06-10T11:37:44;5.25;;;4.30;;
5898;SDS011;2975;50.956;6.962;2023-06-10T11:40:10;4.32;;;3.92;;
5898;SDS011;2975;50.956;6.962;2023-06-10T11:42:40;5.30;;;3.97;;
5898;SDS011;2975;50.956;6.962;2023-06-10T11:45:07;4.60;;;3.92;;
5898;SDS011;2975;50.956;6.962;2023-06-10T11:47:33;6.15;;;3.83;;
5898;SDS011;2975;50.956;6.962;2023-06-10T11:49:59;5.10;;;3.92;;
5898;SDS011;2975;50.956;6.962;2023-06-10T11:52:31;4.45;;;4.05;;
5898;SDS011;2975;50.956;6.962;2023-06-10T11:55:04;5.45;;;4.18;;
5898;SDS011;2975;50.956;6.962;2023-06-10T11:57:33;4.85;;;4.32;;
5898;SDS011;2975;50.956;6.962;2023-06-10T12:00:06;5.82;;;3.88;;
5898;SDS011;2975;50.956;6.962;2023-06-10T12:02:32;4.05;;;3.63;;
5898;SDS011;2975;50.956;6.962;2023-06-10T12:05:09;5.10;;;4.20;;
5898;SDS011;2975;50.956;6.962;2023-06-10T12:07:38;6.18;;;4.47;;
5898;SDS011;2975;50.956;6.962;2023-06-10T12:10:04;4.25;;;3.78;;
5898;SDS011;2975;50.956;6.962;2023-06-10T12:12:30;5.63;;;3.92;;
5898;SDS011;2975;50.956;6.962;2023-06-10T12:14:59;6.63;;;3.90;;
5898;SDS011;2975;50.956;6.962;2023-06-10T12:19:56;5.35;;;4.57;;
5898;SDS011;2975;50.956;6.962;2023-06-10T12:22:23;4.88;;;4.30;;
5898;SDS011;2975;50.956;6.962;2023-06-10T12:25:02;5.63;;;4.30;;
5898;SDS011;2975;50.956;6.962;2023-06-10T12:27:31;5.07;;;4.03;;
5898;SDS011;2975;50.956;6.962;2023-06-10T12:29:58;8.27;;;4.63;;
5898;SDS011;2975;50.956;6.962;2023-06-10T12:32:50;5.13;;;4.63;;
5898;SDS011;2975;50.956;6.962;2023-06-10T12:35:17;5.30;;;4.50;;
5898;SDS011;2975;50.956;6.962;2023-06-10T12:38:01;5.25;;;3.92;;
5898;SDS011;2975;50.956;6.962;2023-06-10T12:40:32;6.53;;;4.43;;
5898;SDS011;2975;50.956;6.962;2023-06-10T12:43:01;7.10;;;4.20;;
5898;SDS011;2975;50.956;6.962;2023-06-10T12:45:30;6.53;;;4.30;;
5898;SDS011;2975;50.956;6.962;2023-06-10T12:48:11;5.13;;;4.28;;
5898;SDS011;2975;50.956;6.962;2023-06-10T12:50:37;8.45;;;4.35;;
5898;SDS011;2975;50.956;6.962;2023-06-10T12:53:04;4.50;;;4.10;;
5898;SDS011;2975;50.956;6.962;2023-06-10T12:55:30;5.47;;;4.45;;
5898;SDS011;2975;50.956;6.962;2023-06-10T12:57:57;6.03;;;3.85;;
5898;SDS011;2975;50.956;6.962;2023-06-10T13:00:23;4.63;;;3.55;;
5898;SDS011;2975;50.956;6.962;2023-06-10T13:02:54;4.05;;;3.65;;
5898;SDS011;2975;50.956;6.962;2023-06-10T13:05:25;3.75;;;3.45;;
5898;SDS011;2975;50.956;6.962;2023-06-10T13:07:50;4.43;;;4.03;;
5898;SDS011;2975;50.956;6.962;2023-06-10T13:10:16;6.93;;;3.58;;
5898;SDS011;2975;50.956;6.962;2023-06-10T13:12:42;4.15;;;3.75;;
5898;SDS011;2975;50.956;6.962;2023-06-10T13:15:09;4.28;;;3.70;;
5898;SDS011;2975;50.956;6.962;2023-06-10T13:17:35;4.82;;;3.78;;
5898;SDS011;2975;50.956;6.962;2023-06-10T13:20:04;5.97;;;3.60;;
5898;SDS011;2975;50.956;6.962;2023-06-10T13:22:33;6.60;;;4.00;;
5898;SDS011;2975;50.956;6.962;2023-06-10T13:25:00;5.22;;;3.58;;
5898;SDS011;2975;50.956;6.962;2023-06-10T13:27:28;4.15;;;3.75;;
5898;SDS011;2975;50.956;6.962;2023-06-10T13:29:53;4.10;;;3.70;;
5898;SDS011;2975;50.956;6.962;2023-06-10T13:32:19;5.63;;;4.18;;
5898;SDS011;2975;50.956;6.962;2023-06-10T13:34:46;5.40;;;3.97;;
5898;SDS011;2975;50.956;6.962;2023-06-10T13:37:11;4.20;;;3.75;;
5898;SDS011;2975;50.956;6.962;2023-06-10T13:39:42;3.88;;;3.50;;
5898;SDS011;2975;50.956;6.962;2023-06-10T13:42:08;4.72;;;4.20;;
5898;SDS011;2975;50.956;6.962;2023-06-10T13:44:34;4.50;;;3.78;;
5898;SDS011;2975;50.956;6.962;2023-06-10T13:47:04;3.53;;;3.22;;
5898;SDS011;2975;50.956;6.962;2023-06-10T13:49:31;5.30;;;3.85;;
5898;SDS011;2975;50.956;6.962;2023-06-10T13:51:57;4.07;;;3.67;;
5898;SDS011;2975;50.956;6.962;2023-06-10T13:54:22;4.00;;;3.40;;
5898;SDS011;2975;50.956;6.962;2023-06-10T13:56:48;4.20;;;3.80;;
5898;SDS011;2975;50.956;6.962;2023-06-10T13:59:14;4.68;;;4.07;;
5898;SDS011;2975;50.956;6.962;2023-06-10T14:01:40;4.60;;;3.40;;
5898;SDS011;2975;50.956;6.962;2023-06-10T14:04:06;4.57;;;3.83;;
5898;SDS011;2975;50.956;6.962;2023-06-10T14:06:32;6.70;;;3.70;;
5898;SDS011;2975;50.956;6.962;2023-06-10T14:08:59;3.83;;;3.40;;
5898;SDS011;2975;50.956;6.962;2023-06-10T14:11:24;6.57;;;3.80;;
5898;SDS011;2975;50.956;6.962;2023-06-10T14:13:50;4.75;;;3.65;;
5898;SDS011;2975;50.956;6.962;2023-06-10T14:16:16;5.82;;;3.70;;
5898;SDS011;2975;50.956;6.962;2023-06-10T14:18:41;4.55;;;3.35;;
5898;SDS011;2975;50.956;6.962;2023-06-10T14:21:07;5.38;;;3.75;;
5898;SDS011;2975;50.956;6.962;2023-06-10T14:23:33;3.38;;;3.08;;
5898;SDS011;2975;50.956;6.962;2023-06-10T14:25:58;5.50;;;3.70;;
5898;SDS011;2975;50.956;6.962;2023-06-10T14:28:24;4.03;;;3.63;;
5898;SDS011;2975;50.956;6.962;2023-06-10T14:30:51;6.28;;;3.55;;
5898;SDS011;2975;50.956;6.962;2023-06-10T14:33:17;5.32;;;3.65;;
5898;SDS011;2975;50.956;6.962;2023-06-10T14:35:43;4.75;;;3.38;;
5898;SDS011;2975;50.956;6.962;2023-06-10T14:38:08;6.38;;;3.33;;
5898;SDS011;2975;50.956;6.962;2023-06-10T14:40:34;3.67;;;3.38;;
5898;SDS011;2975;50.956;6.962;2023-06-10T14:43:00;5.00;;;3.65;;
5898;SDS011;2975;50.956;6.962;2023-06-10T14:45:29;3.85;;;3.10;;
5898;SDS011;2975;50.956;6.962;2023-06-10T14:47:54;3.97;;;3.58;;
5898;SDS011;2975;50.956;6.962;2023-06-10T14:50:20;3.90;;;3.42;;
5898;SDS011;2975;50.956;6.962;2023-06-10T14:52:46;5.90;;;3.85;;
5898;SDS011;2975;50.956;6.962;2023-06-10T14:55:11;5.13;;;3.47;;
5898;SDS011;2975;50.956;6.962;2023-06-10T14:57:37;4.22;;;3.47;;
5898;SDS011;2975;50.956;6.962;2023-06-10T15:00:03;5.85;;;3.70;;
5898;SDS011;2975;50.956;6.962;2023-06-10T15:02:29;4.47;;;3.80;;
5898;SDS011;2975;50.956;6.962;2023-06-10T15:04:55;3.90;;;3.50;;
5898;SDS011;2975;50.956;6.962;2023-06-10T15:07:20;4.55;;;3.15;;
5898;SDS011;2975;50.956;6.962;2023-06-10T15:09:46;4.03;;;3.63;;
5898;SDS011;2975;50.956;6.962;2023-06-10T15:12:11;5.60;;;3.80;;
5898;SDS011;2975;50.956;6.962;2023-06-10T15:14:37;4.38;;;3.50;;
5898;SDS011;2975;50.956;6.962;2023-06-10T15:17:03;5.63;;;3.97;;
5898;SDS011;2975;50.956;6.962;2023-06-10T15:19:29;5.18;;;3.83;;
5898;SDS011;2975;50.956;6.962;2023-06-10T15:21:54;3.60;;;3.05;;
5898;SDS011;2975;50.956;6.962;2023-06-10T15:24:20;6.38;;;3.25;;
5898;SDS011;2975;50.956;6.962;2023-06-10T15:26:45;3.97;;;3.33;;
5898;SDS011;2975;50.956;6.962;2023-06-10T15:29:11;4.45;;;3.90;;
5898;SDS011;2975;50.956;6.962;2023-06-10T15:31:37;6.55;;;3.42;;
5898;SDS011;2975;50.956;6.962;2023-06-10T15:34:04;4.38;;;3.70;;